sensor_id;sensor_type;location;lat;lon;timestamp;temperature;humidity
17859;DHT22;35426;30.698;104.050;2022-08-19T00:01:27;32.30;99.90
17859;DHT22;35426;30.698;104.050;2022-08-19T00:04:07;32.40;99.90
17859;DHT22;35426;30.698;104.050;2022-08-19T00:06:43;32.10;99.90
17859;DHT22;35426;30.698;104.050;2022-08-19T00:09:18;32.30;99.90
17859;DHT22;35426;30.698;104.050;2022-08-19T00:11:56;32.60;99.90
17859;DHT22;35426;30.698;104.050;2022-08-19T00:14:29;32.50;99.90
17859;DHT22;35426;30.698;104.050;2022-08-19T00:17:05;32.60;99.90
17859;DHT22;35426;30.698;104.050;2022-08-19T00:19:39;33.00;99.90
17859;DHT22;35426;30.698;104.050;2022-08-19T00:22:14;32.40;99.90
17859;DHT22;35426;30.698;104.050;2022-08-19T00:24:55;32.40;99.90
17859;DHT22;35426;30.698;104.050;2022-08-19T00:27:32;32.50;99.90
17859;DHT22;35426;30.698;104.050;2022-08-19T00:30:07;32.80;99.90
17859;DHT22;35426;30.698;104.050;2022-08-19T00:32:41;32.70;99.90
17859;DHT22;35426;30.698;104.050;2022-08-19T00:35:15;32.80;99.90
17859;DHT22;35426;30.698;104.050;2022-08-19T00:37:49;32.90;99.90
17859;DHT22;35426;30.698;104.050;2022-08-19T00:40:24;32.30;99.90
17859;DHT22;35426;30.698;104.050;2022-08-19T00:43:01;32.70;99.90
17859;DHT22;35426;30.698;104.050;2022-08-19T00:45:40;33.20;99.90
17859;DHT22;35426;30.698;104.050;2022-08-19T00:48:15;33.10;99.90
17859;DHT22;35426;30.698;104.050;2022-08-19T00:50:50;33.20;99.90
17859;DHT22;35426;30.698;104.050;2022-08-19T00:53:27;33.10;99.90
17859;DHT22;35426;30.698;104.050;2022-08-19T00:56:02;32.90;99.90
17859;DHT22;35426;30.698;104.050;2022-08-19T00:58:39;32.80;99.90
17859;DHT22;35426;30.698;104.050;2022-08-19T01:01:13;32.60;99.90
17859;DHT22;35426;30.698;104.050;2022-08-19T01:03:47;32.60;99.90
17859;DHT22;35426;30.698;104.050;2022-08-19T01:06:28;32.50;99.90
17859;DHT22;35426;30.698;104.050;2022-08-19T01:09:02;32.90;99.90
17859;DHT22;35426;30.698;104.050;2022-08-19T01:11:41;33.30;99.90
17859;DHT22;35426;30.698;104.050;2022-08-19T01:14:19;33.40;99.90
17859;DHT22;35426;30.698;104.050;2022-08-19T01:16:54;32.80;99.90
17859;DHT22;35426;30.698;104.050;2022-08-19T01:19:31;32.70;99.90
17859;DHT22;35426;30.698;104.050;2022-08-19T01:22:18;33.00;99.90
17859;DHT22;35426;30.698;104.050;2022-08-19T01:25:04;33.20;99.90
17859;DHT22;35426;30.698;104.050;2022-08-19T01:27:46;33.10;99.90
17859;DHT22;35426;30.698;104.050;2022-08-19T01:30:24;33.10;99.90
17859;DHT22;35426;30.698;104.050;2022-08-19T01:32:58;33.30;99.90
17859;DHT22;35426;30.698;104.050;2022-08-19T01:35:33;33.60;99.90
17859;DHT22;35426;30.698;104.050;2022-08-19T01:38:10;33.40;99.90
17859;DHT22;35426;30.698;104.050;2022-08-19T01:40:46;33.20;99.90
17859;DHT22;35426;30.698;104.050;2022-08-19T01:43:22;33.80;99.90
17859;DHT22;35426;30.698;104.050;2022-08-19T01:46:07;33.90;99.90
17859;DHT22;35426;30.698;104.050;2022-08-19T01:48:42;34.80;99.90
17859;DHT22;35426;30.698;104.050;2022-08-19T01:51:16;35.30;99.90
17859;DHT22;35426;30.698;104.050;2022-08-19T01:53:50;35.00;99.90
17859;DHT22;35426;30.698;104.050;2022-08-19T01:56:26;34.80;99.90
17859;DHT22;35426;30.698;104.050;2022-08-19T01:59:03;34.80;99.90
17859;DHT22;35426;30.698;104.050;2022-08-19T02:01:37;34.90;99.90
17859;DHT22;35426;30.698;104.050;2022-08-19T02:04:11;34.70;99.90
17859;DHT22;35426;30.698;104.050;2022-08-19T02:06:45;34.40;99.90
17859;DHT22;35426;30.698;104.050;2022-08-19T02:09:18;33.90;99.90
17859;DHT22;35426;30.698;104.050;2022-08-19T02:11:54;33.80;99.90
17859;DHT22;35426;30.698;104.050;2022-08-19T02:14:34;34.40;99.90
17859;DHT22;35426;30.698;104.050;2022-08-19T02:17:07;34.90;99.90
17859;DHT22;35426;30.698;104.050;2022-08-19T02:19:42;35.70;99.90
17859;DHT22;35426;30.698;104.050;2022-08-19T02:22:16;35.60;99.90
17859;DHT22;35426;30.698;104.050;2022-08-19T02:24:50;35.70;99.90
17859;DHT22;35426;30.698;104.050;2022-08-19T02:27:25;35.50;99.90
17859;DHT22;35426;30.698;104.050;2022-08-19T02:29:59;35.20;99.90
17859;DHT22;35426;30.698;104.050;2022-08-19T02:32:42;35.10;99.90
17859;DHT22;35426;30.698;104.050;2022-08-19T02:35:16;35.30;99.90
17859;DHT22;35426;30.698;104.050;2022-08-19T02:37:50;34.60;99.90
17859;DHT22;35426;30.698;104.050;2022-08-19T02:40:39;34.10;99.90
17859;DHT22;35426;30.698;104.050;2022-08-19T02:43:16;34.40;99.90
17859;DHT22;35426;30.698;104.050;2022-08-19T02:45:52;34.70;99.90
17859;DHT22;35426;30.698;104.050;2022-08-19T02:48:26;35.10;99.90
17859;DHT22;35426;30.698;104.050;2022-08-19T02:50:59;35.40;99.90
17859;DHT22;35426;30.698;104.050;2022-08-19T02:53:34;35.70;99.90
17859;DHT22;35426;30.698;104.050;2022-08-19T02:56:08;35.10;99.90
17859;DHT22;35426;30.698;104.050;2022-08-19T02:58:45;36.30;99.90
17859;DHT22;35426;30.698;104.050;2022-08-19T03:01:24;35.50;99.90
17859;DHT22;35426;30.698;104.050;2022-08-19T03:04:00;35.20;99.90
17859;DHT22;35426;30.698;104.050;2022-08-19T03:06:37;34.60;99.90
17859;DHT22;35426;30.698;104.050;2022-08-19T03:09:12;35.30;99.90
17859;DHT22;35426;30.698;104.050;2022-08-19T03:11:45;35.80;99.90
17859;DHT22;35426;30.698;104.050;2022-08-19T03:14:23;36.10;99.90
17859;DHT22;35426;30.698;104.050;2022-08-19T03:16:57;37.40;99.90
17859;DHT22;35426;30.698;104.050;2022-08-19T03:19:31;37.70;99.90
17859;DHT22;35426;30.698;104.050;2022-08-19T03:22:06;36.70;99.90
17859;DHT22;35426;30.698;104.050;2022-08-19T03:24:40;36.40;99.90
17859;DHT22;35426;30.698;104.050;2022-08-19T03:27:13;36.00;99.90
17859;DHT22;35426;30.698;104.050;2022-08-19T03:29:50;36.60;99.90
17859;DHT22;35426;30.698;104.050;2022-08-19T03:32:25;37.00;99.90
17859;DHT22;35426;30.698;104.050;2022-08-19T03:35:01;36.80;99.90
17859;DHT22;35426;30.698;104.050;2022-08-19T03:37:35;36.60;99.90
17859;DHT22;35426;30.698;104.050;2022-08-19T03:40:10;36.70;99.90
17859;DHT22;35426;30.698;104.050;2022-08-19T03:42:45;36.90;99.90
17859;DHT22;35426;30.698;104.050;2022-08-19T03:45:21;37.00;99.90
17859;DHT22;35426;30.698;104.050;2022-08-19T03:47:57;37.80;99.90
17859;DHT22;35426;30.698;104.050;2022-08-19T03:50:30;37.30;99.90
17859;DHT22;35426;30.698;104.050;2022-08-19T03:53:04;37.30;99.90
17859;DHT22;35426;30.698;104.050;2022-08-19T03:55:41;37.00;99.90
17859;DHT22;35426;30.698;104.050;2022-08-19T03:58:15;36.70;99.90
17859;DHT22;35426;30.698;104.050;2022-08-19T04:00:50;37.40;99.90
17859;DHT22;35426;30.698;104.050;2022-08-19T04:03:24;38.20;99.90
17859;DHT22;35426;30.698;104.050;2022-08-19T04:05:58;37.20;99.90
17859;DHT22;35426;30.698;104.050;2022-08-19T04:08:32;36.50;99.90
17859;DHT22;35426;30.698;104.050;2022-08-19T04:11:08;37.00;99.90
17859;DHT22;35426;30.698;104.050;2022-08-19T04:13:43;37.30;99.90
17859;DHT22;35426;30.698;104.050;2022-08-19T04:16:18;36.70;99.90
17859;DHT22;35426;30.698;104.050;2022-08-19T04:19:06;36.70;99.90
17859;DHT22;35426;30.698;104.050;2022-08-19T04:21:42;37.40;99.90
17859;DHT22;35426;30.698;104.050;2022-08-19T04:24:17;37.70;99.90
17859;DHT22;35426;30.698;104.050;2022-08-19T04:26:51;37.50;99.90
17859;DHT22;35426;30.698;104.050;2022-08-19T04:29:25;37.60;99.90
17859;DHT22;35426;30.698;104.050;2022-08-19T04:32:01;37.70;99.90
17859;DHT22;35426;30.698;104.050;2022-08-19T04:34:38;38.40;99.90
17859;DHT22;35426;30.698;104.050;2022-08-19T04:37:35;37.70;99.90
17859;DHT22;35426;30.698;104.050;2022-08-19T04:40:09;36.70;99.90
17859;DHT22;35426;30.698;104.050;2022-08-19T04:42:59;36.70;99.90
17859;DHT22;35426;30.698;104.050;2022-08-19T04:45:35;37.20;99.90
17859;DHT22;35426;30.698;104.050;2022-08-19T04:48:14;36.80;99.90
17859;DHT22;35426;30.698;104.050;2022-08-19T04:51:10;37.20;99.90
17859;DHT22;35426;30.698;104.050;2022-08-19T04:53:46;37.30;99.90
17859;DHT22;35426;30.698;104.050;2022-08-19T04:56:20;37.10;99.90
17859;DHT22;35426;30.698;104.050;2022-08-19T04:58:58;36.80;99.90
17859;DHT22;35426;30.698;104.050;2022-08-19T05:01:34;36.70;99.90
17859;DHT22;35426;30.698;104.050;2022-08-19T05:04:10;36.50;99.90
17859;DHT22;35426;30.698;104.050;2022-08-19T05:06:50;36.70;99.90
17859;DHT22;35426;30.698;104.050;2022-08-19T05:09:29;36.20;99.90
17859;DHT22;35426;30.698;104.050;2022-08-19T05:12:24;35.60;99.90
17859;DHT22;35426;30.698;104.050;2022-08-19T05:14:59;35.90;99.90
17859;DHT22;35426;30.698;104.050;2022-08-19T05:17:35;36.20;99.90
17859;DHT22;35426;30.698;104.050;2022-08-19T05:20:34;36.60;99.90
17859;DHT22;35426;30.698;104.050;2022-08-19T05:23:27;36.70;99.90
17859;DHT22;35426;30.698;104.050;2022-08-19T05:26:00;36.40;99.90
17859;DHT22;35426;30.698;104.050;2022-08-19T05:28:34;36.10;99.90
17859;DHT22;35426;30.698;104.050;2022-08-19T05:31:11;36.00;99.90
17859;DHT22;35426;30.698;104.050;2022-08-19T05:33:52;35.90;99.90
17859;DHT22;35426;30.698;104.050;2022-08-19T05:36:29;36.00;99.90
17859;DHT22;35426;30.698;104.050;2022-08-19T05:39:12;36.00;99.90
17859;DHT22;35426;30.698;104.050;2022-08-19T05:42:08;36.00;99.90
17859;DHT22;35426;30.698;104.050;2022-08-19T05:44:44;35.80;99.90
17859;DHT22;35426;30.698;104.050;2022-08-19T05:47:25;36.00;99.90
17859;DHT22;35426;30.698;104.050;2022-08-19T05:49:59;35.70;99.90
17859;DHT22;35426;30.698;104.050;2022-08-19T05:52:38;35.80;99.90
17859;DHT22;35426;30.698;104.050;2022-08-19T05:55:18;36.00;99.90
17859;DHT22;35426;30.698;104.050;2022-08-19T05:57:54;36.50;99.90
17859;DHT22;35426;30.698;104.050;2022-08-19T06:00:28;36.60;99.90
17859;DHT22;35426;30.698;104.050;2022-08-19T06:03:03;36.00;99.90
17859;DHT22;35426;30.698;104.050;2022-08-19T06:05:42;35.90;99.90
17859;DHT22;35426;30.698;104.050;2022-08-19T06:08:23;35.80;99.90
17859;DHT22;35426;30.698;104.050;2022-08-19T06:11:18;35.90;99.90
17859;DHT22;35426;30.698;104.050;2022-08-19T06:13:52;36.00;99.90
17859;DHT22;35426;30.698;104.050;2022-08-19T06:16:29;35.90;99.90
17859;DHT22;35426;30.698;104.050;2022-08-19T06:19:07;36.10;99.90
17859;DHT22;35426;30.698;104.050;2022-08-19T06:21:42;36.40;99.90
17859;DHT22;35426;30.698;104.050;2022-08-19T06:24:20;36.40;99.90
17859;DHT22;35426;30.698;104.050;2022-08-19T06:26:56;36.30;99.90
17859;DHT22;35426;30.698;104.050;2022-08-19T06:29:32;36.50;99.90
17859;DHT22;35426;30.698;104.050;2022-08-19T06:32:09;36.60;99.90
17859;DHT22;35426;30.698;104.050;2022-08-19T06:34:43;37.20;99.90
17859;DHT22;35426;30.698;104.050;2022-08-19T06:37:17;37.10;99.90
17859;DHT22;35426;30.698;104.050;2022-08-19T06:39:57;37.10;99.90
17859;DHT22;35426;30.698;104.050;2022-08-19T06:42:30;37.00;99.90
17859;DHT22;35426;30.698;104.050;2022-08-19T06:45:23;37.10;99.90
17859;DHT22;35426;30.698;104.050;2022-08-19T06:48:04;37.20;99.90
17859;DHT22;35426;30.698;104.050;2022-08-19T06:50:39;36.80;99.90
17859;DHT22;35426;30.698;104.050;2022-08-19T06:53:16;36.90;99.90
17859;DHT22;35426;30.698;104.050;2022-08-19T06:55:54;37.20;99.90
17859;DHT22;35426;30.698;104.050;2022-08-19T06:58:31;37.10;99.90
17859;DHT22;35426;30.698;104.050;2022-08-19T07:01:06;36.70;99.90
17859;DHT22;35426;30.698;104.050;2022-08-19T07:03:42;36.60;99.90
17859;DHT22;35426;30.698;104.050;2022-08-19T07:06:18;36.60;99.90
17859;DHT22;35426;30.698;104.050;2022-08-19T07:09:13;36.80;99.90
17859;DHT22;35426;30.698;104.050;2022-08-19T07:11:54;37.00;99.90
17859;DHT22;35426;30.698;104.050;2022-08-19T07:14:28;37.20;99.90
17859;DHT22;35426;30.698;104.050;2022-08-19T07:17:01;37.30;99.90
17859;DHT22;35426;30.698;104.050;2022-08-19T07:19:35;36.90;99.90
17859;DHT22;35426;30.698;104.050;2022-08-19T07:22:10;36.80;99.90
17859;DHT22;35426;30.698;104.050;2022-08-19T07:24:45;37.00;99.90
17859;DHT22;35426;30.698;104.050;2022-08-19T07:27:22;37.20;99.90
17859;DHT22;35426;30.698;104.050;2022-08-19T07:29:55;37.20;99.90
17859;DHT22;35426;30.698;104.050;2022-08-19T07:32:29;37.40;99.90
17859;DHT22;35426;30.698;104.050;2022-08-19T07:35:06;37.70;99.90
17859;DHT22;35426;30.698;104.050;2022-08-19T07:37:40;37.60;99.90
17859;DHT22;35426;30.698;104.050;2022-08-19T07:40:20;37.50;99.90
17859;DHT22;35426;30.698;104.050;2022-08-19T07:42:55;37.30;99.90
17859;DHT22;35426;30.698;104.050;2022-08-19T07:45:29;37.20;99.90
17859;DHT22;35426;30.698;104.050;2022-08-19T07:48:04;37.10;99.90
17859;DHT22;35426;30.698;104.050;2022-08-19T07:50:39;37.50;99.90
17859;DHT22;35426;30.698;104.050;2022-08-19T07:53:13;37.30;99.90
17859;DHT22;35426;30.698;104.050;2022-08-19T07:55:48;37.00;99.90
17859;DHT22;35426;30.698;104.050;2022-08-19T07:58:28;37.00;99.90
17859;DHT22;35426;30.698;104.050;2022-08-19T08:01:03;37.00;99.90
17859;DHT22;35426;30.698;104.050;2022-08-19T08:03:38;37.30;99.90
17859;DHT22;35426;30.698;104.050;2022-08-19T08:06:28;37.40;99.90
17859;DHT22;35426;30.698;104.050;2022-08-19T08:09:20;36.90;99.90
17859;DHT22;35426;30.698;104.050;2022-08-19T08:11:59;36.80;99.90
17859;DHT22;35426;30.698;104.050;2022-08-19T08:14:56;37.00;99.90
17859;DHT22;35426;30.698;104.050;2022-08-19T08:17:37;37.40;99.90
17859;DHT22;35426;30.698;104.050;2022-08-19T08:20:20;37.50;99.90
17859;DHT22;35426;30.698;104.050;2022-08-19T08:22:53;37.10;99.90
17859;DHT22;35426;30.698;104.050;2022-08-19T08:25:44;36.90;99.90
17859;DHT22;35426;30.698;104.050;2022-08-19T08:28:19;36.90;99.90
17859;DHT22;35426;30.698;104.050;2022-08-19T08:30:56;37.00;99.90
17859;DHT22;35426;30.698;104.050;2022-08-19T08:33:30;37.10;99.90
17859;DHT22;35426;30.698;104.050;2022-08-19T08:36:05;37.10;99.90
17859;DHT22;35426;30.698;104.050;2022-08-19T08:38:41;36.80;99.90
17859;DHT22;35426;30.698;104.050;2022-08-19T08:41:28;37.20;99.90
17859;DHT22;35426;30.698;104.050;2022-08-19T08:44:04;37.70;99.90
17859;DHT22;35426;30.698;104.050;2022-08-19T08:46:49;37.70;99.90
17859;DHT22;35426;30.698;104.050;2022-08-19T08:49:32;37.50;99.90
17859;DHT22;35426;30.698;104.050;2022-08-19T08:52:11;37.60;99.90
17859;DHT22;35426;30.698;104.050;2022-08-19T08:54:50;37.50;99.90
17859;DHT22;35426;30.698;104.050;2022-08-19T08:57:29;37.70;99.90
17859;DHT22;35426;30.698;104.050;2022-08-19T09:00:13;37.50;99.90
17859;DHT22;35426;30.698;104.050;2022-08-19T09:02:52;37.30;99.90
17859;DHT22;35426;30.698;104.050;2022-08-19T09:05:34;37.20;99.90
17859;DHT22;35426;30.698;104.050;2022-08-19T09:08:22;37.40;99.90
17859;DHT22;35426;30.698;104.050;2022-08-19T09:11:03;37.40;99.90
17859;DHT22;35426;30.698;104.050;2022-08-19T09:13:47;37.40;99.90
17859;DHT22;35426;30.698;104.050;2022-08-19T09:16:26;37.50;99.90
17859;DHT22;35426;30.698;104.050;2022-08-19T09:19:06;37.50;99.90
17859;DHT22;35426;30.698;104.050;2022-08-19T09:21:41;37.30;99.90
17859;DHT22;35426;30.698;104.050;2022-08-19T09:24:15;37.50;99.90
17859;DHT22;35426;30.698;104.050;2022-08-19T09:26:48;37.40;99.90
17859;DHT22;35426;30.698;104.050;2022-08-19T09:29:21;37.30;99.90
17859;DHT22;35426;30.698;104.050;2022-08-19T09:31:55;37.00;99.90
17859;DHT22;35426;30.698;104.050;2022-08-19T09:34:31;36.90;99.90
17859;DHT22;35426;30.698;104.050;2022-08-19T09:37:06;37.00;99.90
17859;DHT22;35426;30.698;104.050;2022-08-19T09:39:46;37.30;99.90
17859;DHT22;35426;30.698;104.050;2022-08-19T09:42:20;37.50;99.90
17859;DHT22;35426;30.698;104.050;2022-08-19T09:44:59;37.50;99.90
17859;DHT22;35426;30.698;104.050;2022-08-19T09:47:38;37.40;99.90
17859;DHT22;35426;30.698;104.050;2022-08-19T09:50:14;37.50;99.90
17859;DHT22;35426;30.698;104.050;2022-08-19T09:52:48;37.70;99.90
17859;DHT22;35426;30.698;104.050;2022-08-19T09:55:27;37.40;99.90
17859;DHT22;35426;30.698;104.050;2022-08-19T09:58:06;37.50;99.90
17859;DHT22;35426;30.698;104.050;2022-08-19T10:00:42;37.50;99.90
17859;DHT22;35426;30.698;104.050;2022-08-19T10:03:20;37.40;99.90
17859;DHT22;35426;30.698;104.050;2022-08-19T10:06:01;37.40;99.90
17859;DHT22;35426;30.698;104.050;2022-08-19T10:08:45;37.40;99.90
17859;DHT22;35426;30.698;104.050;2022-08-19T10:11:22;37.30;99.90
17859;DHT22;35426;30.698;104.050;2022-08-19T10:14:09;37.20;99.90
17859;DHT22;35426;30.698;104.050;2022-08-19T10:16:43;37.10;99.90
17859;DHT22;35426;30.698;104.050;2022-08-19T10:19:16;36.90;99.90
17859;DHT22;35426;30.698;104.050;2022-08-19T10:21:56;36.70;99.90
17859;DHT22;35426;30.698;104.050;2022-08-19T10:24:30;36.70;99.90
17859;DHT22;35426;30.698;104.050;2022-08-19T10:27:05;36.80;99.90
17859;DHT22;35426;30.698;104.050;2022-08-19T10:29:40;36.70;99.90
17859;DHT22;35426;30.698;104.050;2022-08-19T10:32:18;36.70;99.90
17859;DHT22;35426;30.698;104.050;2022-08-19T10:35:03;36.50;99.90
17859;DHT22;35426;30.698;104.050;2022-08-19T10:37:40;36.70;99.90
17859;DHT22;35426;30.698;104.050;2022-08-19T10:40:26;36.70;99.90
17859;DHT22;35426;30.698;104.050;2022-08-19T10:43:01;36.70;99.90
17859;DHT22;35426;30.698;104.050;2022-08-19T10:45:34;36.60;99.90
17859;DHT22;35426;30.698;104.050;2022-08-19T10:48:20;36.60;99.90
17859;DHT22;35426;30.698;104.050;2022-08-19T10:50:58;36.50;99.90
17859;DHT22;35426;30.698;104.050;2022-08-19T10:53:53;36.30;99.90
17859;DHT22;35426;30.698;104.050;2022-08-19T10:56:27;36.10;99.90
17859;DHT22;35426;30.698;104.050;2022-08-19T10:59:18;36.00;99.90
17859;DHT22;35426;30.698;104.050;2022-08-19T11:01:58;35.90;99.90
17859;DHT22;35426;30.698;104.050;2022-08-19T11:04:33;35.70;99.90
17859;DHT22;35426;30.698;104.050;2022-08-19T11:07:08;35.70;99.90
17859;DHT22;35426;30.698;104.050;2022-08-19T11:09:44;35.70;99.90
17859;DHT22;35426;30.698;104.050;2022-08-19T11:12:19;35.70;99.90
17859;DHT22;35426;30.698;104.050;2022-08-19T11:14:52;35.70;99.90
17859;DHT22;35426;30.698;104.050;2022-08-19T11:17:25;35.70;99.90
17859;DHT22;35426;30.698;104.050;2022-08-19T11:20:03;35.60;99.90
17859;DHT22;35426;30.698;104.050;2022-08-19T11:22:36;35.50;99.90
17859;DHT22;35426;30.698;104.050;2022-08-19T11:25:12;35.40;99.90
17859;DHT22;35426;30.698;104.050;2022-08-19T11:27:46;35.40;99.90
17859;DHT22;35426;30.698;104.050;2022-08-19T11:30:22;35.30;99.90
17859;DHT22;35426;30.698;104.050;2022-08-19T11:32:56;35.30;99.90
17859;DHT22;35426;30.698;104.050;2022-08-19T11:35:37;35.30;99.90
17859;DHT22;35426;30.698;104.050;2022-08-19T11:38:11;35.30;99.90
17859;DHT22;35426;30.698;104.050;2022-08-19T11:40:55;35.30;99.90
17859;DHT22;35426;30.698;104.050;2022-08-19T11:43:28;35.20;99.90
17859;DHT22;35426;30.698;104.050;2022-08-19T11:46:06;35.10;99.90
17859;DHT22;35426;30.698;104.050;2022-08-19T11:48:41;35.10;99.90
17859;DHT22;35426;30.698;104.050;2022-08-19T11:51:16;35.00;99.90
17859;DHT22;35426;30.698;104.050;2022-08-19T11:53:50;35.00;99.90
17859;DHT22;35426;30.698;104.050;2022-08-19T11:56:27;34.90;99.90
17859;DHT22;35426;30.698;104.050;2022-08-19T11:59:03;34.90;99.90
17859;DHT22;35426;30.698;104.050;2022-08-19T12:01:42;34.90;99.90
17859;DHT22;35426;30.698;104.050;2022-08-19T12:04:17;34.90;99.90
17859;DHT22;35426;30.698;104.050;2022-08-19T12:06:51;34.90;99.90
17859;DHT22;35426;30.698;104.050;2022-08-19T12:09:25;34.90;99.90
17859;DHT22;35426;30.698;104.050;2022-08-19T12:12:01;34.90;99.90
17859;DHT22;35426;30.698;104.050;2022-08-19T12:14:36;34.80;99.90
17859;DHT22;35426;30.698;104.050;2022-08-19T12:17:09;34.70;99.90
17859;DHT22;35426;30.698;104.050;2022-08-19T12:19:44;34.60;99.90
17859;DHT22;35426;30.698;104.050;2022-08-19T12:22:17;34.60;99.90
17859;DHT22;35426;30.698;104.050;2022-08-19T12:24:52;34.60;99.90
17859;DHT22;35426;30.698;104.050;2022-08-19T12:27:28;34.60;99.90
17859;DHT22;35426;30.698;104.050;2022-08-19T12:30:15;34.50;99.90
17859;DHT22;35426;30.698;104.050;2022-08-19T12:32:50;34.50;99.90
17859;DHT22;35426;30.698;104.050;2022-08-19T12:35:26;34.50;99.90
17859;DHT22;35426;30.698;104.050;2022-08-19T12:37:59;34.60;99.90
17859;DHT22;35426;30.698;104.050;2022-08-19T12:40:34;34.60;99.90
17859;DHT22;35426;30.698;104.050;2022-08-19T12:43:10;34.50;99.90
17859;DHT22;35426;30.698;104.050;2022-08-19T12:45:46;34.50;99.90
17859;DHT22;35426;30.698;104.050;2022-08-19T12:48:19;34.40;99.90
17859;DHT22;35426;30.698;104.050;2022-08-19T12:51:07;34.40;99.90
17859;DHT22;35426;30.698;104.050;2022-08-19T12:53:45;34.50;99.90
17859;DHT22;35426;30.698;104.050;2022-08-19T12:56:20;34.40;99.90
17859;DHT22;35426;30.698;104.050;2022-08-19T12:59:02;34.50;99.90
17859;DHT22;35426;30.698;104.050;2022-08-19T13:01:39;34.50;99.90
17859;DHT22;35426;30.698;104.050;2022-08-19T13:04:12;34.40;99.90
17859;DHT22;35426;30.698;104.050;2022-08-19T13:06:46;34.40;99.90
17859;DHT22;35426;30.698;104.050;2022-08-19T13:09:20;34.40;99.90
17859;DHT22;35426;30.698;104.050;2022-08-19T13:11:54;34.40;99.90
17859;DHT22;35426;30.698;104.050;2022-08-19T13:14:30;34.40;99.90
17859;DHT22;35426;30.698;104.050;2022-08-19T13:17:05;34.30;99.90
17859;DHT22;35426;30.698;104.050;2022-08-19T13:19:40;34.30;99.90
17859;DHT22;35426;30.698;104.050;2022-08-19T13:22:14;34.20;99.90
17859;DHT22;35426;30.698;104.050;2022-08-19T13:24:49;34.30;99.90
17859;DHT22;35426;30.698;104.050;2022-08-19T13:27:24;34.20;99.90
17859;DHT22;35426;30.698;104.050;2022-08-19T13:29:59;34.20;99.90
17859;DHT22;35426;30.698;104.050;2022-08-19T13:32:49;34.20;99.90
17859;DHT22;35426;30.698;104.050;2022-08-19T13:35:41;34.20;99.90
17859;DHT22;35426;30.698;104.050;2022-08-19T13:38:20;34.30;99.90
17859;DHT22;35426;30.698;104.050;2022-08-19T13:40:54;34.30;99.90
17859;DHT22;35426;30.698;104.050;2022-08-19T13:43:30;34.20;99.90
17859;DHT22;35426;30.698;104.050;2022-08-19T13:46:10;34.20;99.90
17859;DHT22;35426;30.698;104.050;2022-08-19T13:48:45;34.20;99.90
17859;DHT22;35426;30.698;104.050;2022-08-19T13:51:19;34.30;99.90
17859;DHT22;35426;30.698;104.050;2022-08-19T13:53:53;34.20;99.90
17859;DHT22;35426;30.698;104.050;2022-08-19T13:56:27;34.30;99.90
17859;DHT22;35426;30.698;104.050;2022-08-19T13:59:04;34.30;99.90
17859;DHT22;35426;30.698;104.050;2022-08-19T14:01:41;34.30;99.90
17859;DHT22;35426;30.698;104.050;2022-08-19T14:04:15;34.30;99.90
17859;DHT22;35426;30.698;104.050;2022-08-19T14:06:49;34.20;99.90
17859;DHT22;35426;30.698;104.050;2022-08-19T14:09:24;34.30;99.90
17859;DHT22;35426;30.698;104.050;2022-08-19T14:12:00;34.20;99.90
17859;DHT22;35426;30.698;104.050;2022-08-19T14:14:38;34.20;99.90
17859;DHT22;35426;30.698;104.050;2022-08-19T14:17:15;34.20;99.90
17859;DHT22;35426;30.698;104.050;2022-08-19T14:19:58;34.10;99.90
17859;DHT22;35426;30.698;104.050;2022-08-19T14:22:40;34.20;99.90
17859;DHT22;35426;30.698;104.050;2022-08-19T14:25:16;34.10;99.90
17859;DHT22;35426;30.698;104.050;2022-08-19T14:27:50;34.10;99.90
17859;DHT22;35426;30.698;104.050;2022-08-19T14:30:27;34.10;99.90
17859;DHT22;35426;30.698;104.050;2022-08-19T14:33:06;34.10;99.90
17859;DHT22;35426;30.698;104.050;2022-08-19T14:35:48;34.20;99.90
17859;DHT22;35426;30.698;104.050;2022-08-19T14:38:29;34.20;99.90
17859;DHT22;35426;30.698;104.050;2022-08-19T14:41:15;34.10;99.90
17859;DHT22;35426;30.698;104.050;2022-08-19T14:43:51;34.10;99.90
17859;DHT22;35426;30.698;104.050;2022-08-19T14:46:27;34.10;99.90
17859;DHT22;35426;30.698;104.050;2022-08-19T14:49:07;34.00;99.90
17859;DHT22;35426;30.698;104.050;2022-08-19T14:51:44;34.00;99.90
17859;DHT22;35426;30.698;104.050;2022-08-19T14:54:20;34.00;99.90
17859;DHT22;35426;30.698;104.050;2022-08-19T14:56:59;34.00;99.90
17859;DHT22;35426;30.698;104.050;2022-08-19T14:59:35;34.00;99.90
17859;DHT22;35426;30.698;104.050;2022-08-19T15:02:09;34.00;99.90
17859;DHT22;35426;30.698;104.050;2022-08-19T15:05:06;34.00;99.90
17859;DHT22;35426;30.698;104.050;2022-08-19T15:07:40;34.00;99.90
17859;DHT22;35426;30.698;104.050;2022-08-19T15:10:17;34.00;99.90
17859;DHT22;35426;30.698;104.050;2022-08-19T15:13:07;34.00;99.90
17859;DHT22;35426;30.698;104.050;2022-08-19T15:15:43;34.00;99.90
17859;DHT22;35426;30.698;104.050;2022-08-19T15:18:20;34.00;99.90
17859;DHT22;35426;30.698;104.050;2022-08-19T15:21:04;34.00;99.90
17859;DHT22;35426;30.698;104.050;2022-08-19T15:23:40;34.00;99.90
17859;DHT22;35426;30.698;104.050;2022-08-19T15:26:19;34.10;99.90
17859;DHT22;35426;30.698;104.050;2022-08-19T15:28:53;34.20;99.90
17859;DHT22;35426;30.698;104.050;2022-08-19T15:31:28;34.30;99.90
17859;DHT22;35426;30.698;104.050;2022-08-19T15:34:13;34.50;99.90
17859;DHT22;35426;30.698;104.050;2022-08-19T15:36:54;34.40;99.90
17859;DHT22;35426;30.698;104.050;2022-08-19T15:39:29;34.30;99.90
17859;DHT22;35426;30.698;104.050;2022-08-19T15:42:05;34.40;99.90
17859;DHT22;35426;30.698;104.050;2022-08-19T15:44:45;34.30;99.90
17859;DHT22;35426;30.698;104.050;2022-08-19T15:47:31;34.30;99.90
17859;DHT22;35426;30.698;104.050;2022-08-19T15:50:07;34.20;99.90
17859;DHT22;35426;30.698;104.050;2022-08-19T15:52:51;34.30;99.90
17859;DHT22;35426;30.698;104.050;2022-08-19T15:55:28;34.30;99.90
17859;DHT22;35426;30.698;104.050;2022-08-19T15:58:05;34.20;99.90
17859;DHT22;35426;30.698;104.050;2022-08-19T16:00:58;34.30;99.90
17859;DHT22;35426;30.698;104.050;2022-08-19T16:03:51;34.30;99.90
17859;DHT22;35426;30.698;104.050;2022-08-19T16:06:45;34.50;99.90